createdAt,value
2023-04-30T00:00:51.863Z,100836.59
2023-04-30T00:03:18.371Z,100829.63
2023-04-30T00:05:44.853Z,100830.13
2023-04-30T00:08:15.823Z,100834.91
2023-04-30T00:10:42.204Z,100835.16
2023-04-30T00:13:10.183Z,100836.94
2023-04-30T00:15:36.787Z,100846.75
2023-04-30T00:18:06.998Z,100853.09
2023-04-30T00:20:35.266Z,100853.28
2023-04-30T00:23:04.093Z,100847.28
2023-04-30T00:25:30.696Z,100851.84
2023-04-30T00:27:57.275Z,100856.38
2023-04-30T00:30:23.832Z,100866.09
2023-04-30T00:32:50.341Z,100859.97
2023-04-30T00:35:16.932Z,100858.06
2023-04-30T00:37:43.362Z,100853.75
2023-04-30T00:40:12.784Z,100853.75
2023-04-30T00:42:39.206Z,100867.88
2023-04-30T00:45:06.395Z,100856.38
2023-04-30T00:47:32.868Z,100853.03
2023-04-30T00:50:02.573Z,100858.53
2023-04-30T00:52:29.262Z,100858.53
2023-04-30T00:54:55.927Z,100850.50
2023-04-30T00:57:22.928Z,100852.53
2023-04-30T00:59:49.369Z,100855.34
2023-04-30T01:02:15.934Z,100850.91
2023-04-30T01:04:42.531Z,100853.88
2023-04-30T01:07:09.233Z,100859.38
2023-04-30T01:09:36.036Z,100862.13
2023-04-30T01:12:13.848Z,100849.91
2023-04-30T01:15:15.167Z,100855.28
2023-04-30T01:17:53.046Z,100868.47
2023-04-30T01:20:20.221Z,100858.34
2023-04-30T01:23:12.862Z,100860.25
2023-04-30T01:25:39.522Z,100857.84
2023-04-30T01:28:06.714Z,100857.84
2023-04-30T01:30:34.440Z,100850.78
2023-04-30T01:33:01.067Z,100852.56
2023-04-30T01:35:43.429Z,100849.09
2023-04-30T01:38:22.010Z,100845.72
2023-04-30T01:40:57.874Z,100850.16
2023-04-30T01:43:37.771Z,100841.31
2023-04-30T01:46:15.958Z,100846.69
2023-04-30T01:49:06.619Z,100839.16
2023-04-30T01:51:40.879Z,100836.66
2023-04-30T01:54:15.835Z,100842.75
2023-04-30T01:56:53.356Z,100841.81
2023-04-30T01:59:20.585Z,100836.19
2023-04-30T02:01:49.710Z,100840.63
2023-04-30T02:04:16.212Z,100836.19
2023-04-30T02:06:42.728Z,100840.63
2023-04-30T02:09:10.670Z,100844.00
2023-04-30T02:11:37.107Z,100836.19
2023-04-30T02:14:03.806Z,100842.53
2023-04-30T02:16:30.381Z,100842.53
2023-04-30T02:18:56.862Z,100828.41
2023-04-30T02:21:25.669Z,100842.53
2023-04-30T02:23:52.123Z,100848.75
2023-04-30T02:26:18.583Z,100847.06
2023-04-30T02:28:45.003Z,100834.63
2023-04-30T02:31:13.714Z,100841.06
2023-04-30T02:33:40.269Z,100846.56
2023-04-30T02:36:06.761Z,100837.09
2023-04-30T02:38:54.404Z,100832.84
2023-04-30T02:41:21.797Z,100843.50
2023-04-30T02:43:48.211Z,100841.00
2023-04-30T02:46:14.726Z,100834.75
2023-04-30T02:48:41.354Z,100836.25
2023-04-30T02:51:08.165Z,100829.31
2023-04-30T02:53:34.556Z,100831.00
2023-04-30T02:56:01.048Z,100814.72
2023-04-30T02:58:27.388Z,100825.28
2023-04-30T03:00:53.834Z,100810.91
2023-04-30T03:03:20.751Z,100807.91
2023-04-30T03:05:47.292Z,100784.34
2023-04-30T03:08:13.852Z,100794.75
2023-04-30T03:10:42.739Z,100813.56
2023-04-30T03:13:09.190Z,100798.72
2023-04-30T03:15:37.970Z,100812.72
2023-04-30T03:18:04.999Z,100816.28
2023-04-30T03:20:31.377Z,100807.53
2023-04-30T03:22:57.756Z,100802.09
2023-04-30T03:25:24.336Z,100809.84
2023-04-30T03:27:50.706Z,100809.22
2023-04-30T03:30:17.097Z,100804.06
2023-04-30T03:32:43.505Z,100810.63
2023-04-30T03:35:10.072Z,100817.81
2023-04-30T03:37:36.517Z,100815.41
2023-04-30T03:40:03.617Z,100815.69
2023-04-30T03:42:30.112Z,100822.28
2023-04-30T03:44:56.627Z,100811.00
2023-04-30T03:47:23.138Z,100817.94
2023-04-30T03:49:55.063Z,100815.31
2023-04-30T03:52:22.466Z,100811.28
2023-04-30T03:54:48.910Z,100811.97
2023-04-30T03:57:15.294Z,100807.88
2023-04-30T03:59:42.053Z,100814.81
2023-04-30T04:02:08.783Z,100813.44
2023-04-30T04:04:35.396Z,100806.47
2023-04-30T04:07:03.296Z,100808.59
2023-04-30T04:09:29.945Z,100813.34
2023-04-30T04:11:59.420Z,100812.19
2023-04-30T04:14:25.872Z,100809.31
2023-04-30T04:16:52.395Z,100806.69
2023-04-30T04:19:18.757Z,100803.94
2023-04-30T04:21:45.190Z,100819.28
2023-04-30T04:24:14.902Z,100821.09
2023-04-30T04:26:41.568Z,100813.72
2023-04-30T04:29:12.107Z,100825.41
2023-04-30T04:31:38.717Z,100829.09
2023-04-30T04:34:05.690Z,100832.28
2023-04-30T04:36:33.380Z,100830.91
2023-04-30T04:39:03.858Z,100828.16
2023-04-30T04:41:38.180Z,100837.63
2023-04-30T04:44:04.891Z,100833.19
2023-04-30T04:46:35.005Z,100844.63
2023-04-30T04:49:01.950Z,100834.06
2023-04-30T04:51:28.546Z,100833.00
2023-04-30T04:53:55.131Z,100836.97
2023-04-30T04:56:21.488Z,100834.97
2023-04-30T04:58:47.926Z,100830.09
2023-04-30T05:01:14.612Z,100829.88
2023-04-30T05:03:41.650Z,100826.28
2023-04-30T05:06:08.265Z,100838.56
2023-04-30T05:08:34.790Z,100835.00
2023-04-30T05:11:03.944Z,100832.41
2023-04-30T05:13:30.630Z,100831.03
2023-04-30T05:15:57.157Z,100819.03
2023-04-30T05:18:23.640Z,100825.66
2023-04-30T05:20:52.793Z,100823.28
2023-04-30T05:23:21.538Z,100821.94
2023-04-30T05:25:52.210Z,100815.47
2023-04-30T05:28:18.776Z,100817.50
2023-04-30T05:30:45.691Z,100807.91
2023-04-30T05:33:12.133Z,100822.53
2023-04-30T05:35:38.651Z,100829.75
2023-04-30T05:38:05.016Z,100829.03
2023-04-30T05:40:32.321Z,100832.88
2023-04-30T05:42:58.744Z,100829.50
2023-04-30T05:45:27.736Z,100824.72
2023-04-30T05:47:54.206Z,100834.06
2023-04-30T05:50:20.712Z,100828.91
2023-04-30T05:52:47.057Z,100818.69
2023-04-30T05:55:13.762Z,100812.47
2023-04-30T05:57:40.337Z,100824.94
2023-04-30T06:00:07.633Z,100828.88
2023-04-30T06:02:34.496Z,100823.22
2023-04-30T06:05:03.131Z,100827.06
2023-04-30T06:07:32.545Z,100814.28
2023-04-30T06:09:59.038Z,100814.63
2023-04-30T06:12:25.993Z,100816.91
2023-04-30T06:14:54.962Z,100822.41
2023-04-30T06:17:24.018Z,100824.34
2023-04-30T06:19:55.472Z,100814.91
2023-04-30T06:22:22.158Z,100809.59
2023-04-30T06:24:48.525Z,100811.88
2023-04-30T06:27:14.940Z,100802.97
2023-04-30T06:29:43.615Z,100813.28
2023-04-30T06:32:10.087Z,100815.59
2023-04-30T06:34:37.093Z,100810.13
2023-04-30T06:37:03.522Z,100804.19
2023-04-30T06:39:30.348Z,100805.56
2023-04-30T06:41:56.950Z,100801.66
2023-04-30T06:44:23.329Z,100803.81
2023-04-30T06:46:49.726Z,100800.31
2023-04-30T06:49:18.333Z,100804.13
2023-04-30T06:51:47.043Z,100805.38
2023-04-30T06:54:18.237Z,100809.03
2023-04-30T06:56:49.250Z,100804.31
2023-04-30T06:59:16.562Z,100801.69
2023-04-30T07:01:42.976Z,100806.13
2023-04-30T07:04:09.551Z,100811.44
2023-04-30T07:06:36.322Z,100788.69
2023-04-30T07:09:03.478Z,100788.13
2023-04-30T07:11:29.922Z,100787.84
2023-04-30T07:13:56.931Z,100796.22
2023-04-30T07:16:25.821Z,100798.72
2023-04-30T07:18:52.530Z,100794.56
2023-04-30T07:21:19.060Z,100801.53
2023-04-30T07:23:45.615Z,100805.13
2023-04-30T07:26:12.171Z,100786.69
2023-04-30T07:28:38.576Z,100794.50
2023-04-30T07:31:07.587Z,100795.03
2023-04-30T07:33:36.357Z,100788.00
2023-04-30T07:36:02.717Z,100786.22
2023-04-30T07:38:29.394Z,100782.78
2023-04-30T07:40:56.250Z,100794.19
2023-04-30T07:43:22.640Z,100786.97
2023-04-30T07:45:49.990Z,100792.22
2023-04-30T07:48:23.697Z,100792.84
2023-04-30T07:50:52.126Z,100780.31
2023-04-30T07:53:21.754Z,100787.94
2023-04-30T07:55:48.278Z,100774.94
2023-04-30T07:58:14.846Z,100784.47
2023-04-30T08:00:41.347Z,100777.41
2023-04-30T08:03:10.446Z,100766.97
2023-04-30T08:05:36.954Z,100787.59
2023-04-30T08:08:08.272Z,100770.44
2023-04-30T08:10:35.059Z,100774.22
2023-04-30T08:13:01.502Z,100761.31
2023-04-30T08:15:30.743Z,100770.09
2023-04-30T08:17:57.281Z,100766.94
2023-04-30T08:20:23.914Z,100771.75
2023-04-30T08:22:51.024Z,100760.25
2023-04-30T08:25:19.763Z,100770.97
2023-04-30T08:27:46.583Z,100770.63
2023-04-30T08:30:12.951Z,100776.34
2023-04-30T08:32:44.320Z,100771.94
2023-04-30T08:35:10.889Z,100774.03
2023-04-30T08:37:39.473Z,100764.69
2023-04-30T08:40:09.714Z,100766.28
2023-04-30T08:42:37.537Z,100764.22
2023-04-30T08:45:04.823Z,100764.59
2023-04-30T08:47:31.952Z,100772.66
2023-04-30T08:49:58.390Z,100767.94
2023-04-30T08:52:26.760Z,100767.63
2023-04-30T08:54:57.208Z,100758.66
2023-04-30T08:57:23.624Z,100762.00
2023-04-30T08:59:50.127Z,100768.03
2023-04-30T09:02:16.677Z,100748.00
2023-04-30T09:04:43.156Z,100746.84
2023-04-30T09:07:14.266Z,100739.94
2023-04-30T09:09:45.832Z,100739.13
2023-04-30T09:12:15.269Z,100748.84
2023-04-30T09:15:05.179Z,100748.28
2023-04-30T09:17:32.750Z,100735.94
2023-04-30T09:20:12.870Z,100738.00
2023-04-30T09:22:41.210Z,100734.34
2023-04-30T09:25:08.951Z,100738.25
2023-04-30T09:27:35.868Z,100740.81
2023-04-30T09:30:02.596Z,100738.75
2023-04-30T09:32:29.113Z,100735.66
2023-04-30T09:34:56.069Z,100736.31
2023-04-30T09:37:22.717Z,100726.91
2023-04-30T09:39:55.627Z,100742.19
2023-04-30T09:42:22.463Z,100737.41
2023-04-30T09:44:49.027Z,100738.03
2023-04-30T09:47:19.786Z,100746.69
2023-04-30T09:49:54.589Z,100720.47
2023-04-30T09:52:21.421Z,100733.44
2023-04-30T09:54:50.622Z,100721.59
2023-04-30T09:57:21.431Z,100727.38
2023-04-30T09:59:48.739Z,100732.91
2023-04-30T10:02:20.304Z,100728.22
2023-04-30T10:04:53.330Z,100725.47
2023-04-30T10:07:22.689Z,100727.53
2023-04-30T10:09:55.258Z,100735.38
2023-04-30T10:12:34.288Z,100726.41
2023-04-30T10:15:15.112Z,100719.19
2023-04-30T10:17:44.421Z,100735.66
2023-04-30T10:20:12.817Z,100722.75
2023-04-30T10:22:41.824Z,100726.69
2023-04-30T10:25:11.353Z,100720.59
2023-04-30T10:27:38.005Z,100724.91
2023-04-30T10:30:07.910Z,100715.84
2023-04-30T10:32:44.767Z,100719.22
2023-04-30T10:35:24.358Z,100713.47
2023-04-30T10:37:59.671Z,100707.31
2023-04-30T10:40:29.136Z,100711.72
2023-04-30T10:42:58.174Z,100699.44
2023-04-30T10:45:38.088Z,100705.72
2023-04-30T10:48:07.928Z,100703.44
2023-04-30T10:50:45.027Z,100710.50
2023-04-30T10:53:17.010Z,100701.25
2023-04-30T10:56:09.805Z,100703.56
2023-04-30T10:58:38.469Z,100706.94
2023-04-30T11:01:15.077Z,100704.28
2023-04-30T11:04:02.471Z,100690.28
2023-04-30T11:06:54.171Z,100690.97
2023-04-30T11:09:45.112Z,100697.88
2023-04-30T11:12:19.619Z,100696.88
2023-04-30T11:14:46.381Z,100690.78
2023-04-30T11:17:22.759Z,100698.75
2023-04-30T11:19:51.715Z,100704.25
2023-04-30T11:22:19.151Z,100702.16
2023-04-30T11:25:09.803Z,100699.00
2023-04-30T11:27:45.081Z,100695.31
2023-04-30T11:30:15.077Z,100682.78
2023-04-30T11:32:48.351Z,100672.72
2023-04-30T11:35:21.303Z,100688.16
2023-04-30T11:37:54.789Z,100685.84
2023-04-30T11:40:22.058Z,100693.31
2023-04-30T11:42:48.562Z,100673.53
2023-04-30T11:45:20.917Z,100674.63
2023-04-30T11:47:52.423Z,100680.84
2023-04-30T11:50:29.870Z,100681.41
2023-04-30T11:52:59.293Z,100681.69
2023-04-30T11:55:28.470Z,100672.25
2023-04-30T11:57:59.253Z,100669.22
2023-04-30T12:00:28.693Z,100675.75
2023-04-30T12:02:56.320Z,100675.06
2023-04-30T12:05:25.154Z,100673.69
2023-04-30T12:07:56.908Z,100669.59
2023-04-30T12:10:23.824Z,100663.69
2023-04-30T12:12:52.778Z,100662.41
2023-04-30T12:15:26.165Z,100657.41
2023-04-30T12:17:54.551Z,100654.88
2023-04-30T12:20:22.976Z,100646.22
2023-04-30T12:22:49.754Z,100641.94
2023-04-30T12:25:18.603Z,100628.09
2023-04-30T12:27:49.876Z,100634.91
2023-04-30T12:30:21.262Z,100628.16
2023-04-30T12:32:54.517Z,100633.06
2023-04-30T12:35:25.574Z,100644.13
2023-04-30T12:38:01.024Z,100647.03
2023-04-30T12:40:28.036Z,100645.66
2023-04-30T12:43:02.814Z,100632.59
2023-04-30T12:45:57.913Z,100637.78
2023-04-30T12:48:25.519Z,100626.06
2023-04-30T12:50:56.707Z,100619.69
2023-04-30T12:53:24.582Z,100631.78
2023-04-30T12:56:07.868Z,100614.34
2023-04-30T12:58:35.082Z,100617.38
2023-04-30T13:01:05.314Z,100620.50
2023-04-30T13:03:31.863Z,100599.63
2023-04-30T13:05:59.139Z,100601.63
2023-04-30T13:08:26.157Z,100595.84
2023-04-30T13:10:52.474Z,100603.06
2023-04-30T13:13:20.336Z,100598.09
2023-04-30T13:15:47.105Z,100578.16
2023-04-30T13:18:15.730Z,100594.34
2023-04-30T13:20:43.882Z,100595.69
2023-04-30T13:23:11.886Z,100573.00
2023-04-30T13:25:39.253Z,100569.97
2023-04-30T13:28:05.871Z,100578.63
2023-04-30T13:30:32.292Z,100563.47
2023-04-30T13:32:59.265Z,100574.34
2023-04-30T13:35:26.048Z,100568.16
2023-04-30T13:37:53.487Z,100555.63
2023-04-30T13:40:21.295Z,100558.81
2023-04-30T13:42:50.537Z,100555.63
2023-04-30T13:45:17.235Z,100565.47
2023-04-30T13:47:46.191Z,100553.34
2023-04-30T13:50:13.201Z,100552.31
2023-04-30T13:52:39.710Z,100547.63
2023-04-30T13:55:07.092Z,100538.47
2023-04-30T13:57:33.550Z,100544.59
2023-04-30T14:00:02.747Z,100550.59
2023-04-30T14:02:31.850Z,100537.66
2023-04-30T14:05:05.682Z,100531.63
2023-04-30T14:07:32.627Z,100537.97
2023-04-30T14:09:59.222Z,100532.28
2023-04-30T14:12:25.674Z,100537.31
2023-04-30T14:14:54.459Z,100527.94
2023-04-30T14:17:21.146Z,100533.97
2023-04-30T14:19:47.780Z,100531.63
2023-04-30T14:22:14.673Z,100527.63
2023-04-30T14:24:41.127Z,100517.47
2023-04-30T14:27:07.633Z,100515.28
2023-04-30T14:29:34.048Z,100521.09
2023-04-30T14:32:01.264Z,100518.63
2023-04-30T14:34:30.231Z,100513.97
2023-04-30T14:36:59.306Z,100517.09
2023-04-30T14:39:26.247Z,100513.47
2023-04-30T14:41:53.538Z,100516.28
2023-04-30T14:44:21.243Z,100521.91
2023-04-30T14:46:47.810Z,100505.59
2023-04-30T14:49:14.250Z,100510.75
2023-04-30T14:51:40.779Z,100503.94
2023-04-30T14:54:07.158Z,100509.59
2023-04-30T14:56:33.843Z,100501.81
2023-04-30T14:59:00.380Z,100492.97
2023-04-30T15:01:28.459Z,100492.16
2023-04-30T15:03:55.289Z,100487.78
2023-04-30T15:06:21.827Z,100478.31
2023-04-30T15:08:48.296Z,100487.97
2023-04-30T15:11:14.961Z,100477.63
2023-04-30T15:13:44.049Z,100477.81
2023-04-30T15:16:11.521Z,100474.63
2023-04-30T15:18:40.798Z,100467.97
2023-04-30T15:21:07.319Z,100473.31
2023-04-30T15:23:34.145Z,100471.97
2023-04-30T15:26:04.467Z,100475.16
2023-04-30T15:28:34.342Z,100475.28
2023-04-30T15:31:01.680Z,100463.97
2023-04-30T15:33:30.611Z,100475.13
2023-04-30T15:35:57.658Z,100474.44
2023-04-30T15:38:24.159Z,100473.63
2023-04-30T15:40:50.651Z,100465.63
2023-04-30T15:43:17.902Z,100457.97
2023-04-30T15:45:48.281Z,100456.63
2023-04-30T15:48:14.924Z,100452.81
2023-04-30T15:50:41.370Z,100443.31
2023-04-30T15:53:07.740Z,100445.31
2023-04-30T15:55:34.290Z,100442.81
2023-04-30T15:58:00.926Z,100443.47
2023-04-30T16:00:29.157Z,100444.28
2023-04-30T16:02:55.815Z,100437.66
2023-04-30T16:05:22.296Z,100441.13
2023-04-30T16:07:49.573Z,100437.66
2023-04-30T16:10:16.346Z,100426.28
2023-04-30T16:12:42.872Z,100429.28
2023-04-30T16:15:14.677Z,100425.63
2023-04-30T16:17:41.129Z,100420.66
2023-04-30T16:20:08.485Z,100431.72
2023-04-30T16:22:37.508Z,100414.09
2023-04-30T16:25:10.014Z,100413.09
2023-04-30T16:27:37.779Z,100422.91
2023-04-30T16:30:05.677Z,100420.91
2023-04-30T16:32:32.345Z,100419.25
2023-04-30T16:35:00.918Z,100417.91
2023-04-30T16:37:28.669Z,100430.69
2023-04-30T16:39:55.348Z,100417.22
2023-04-30T16:42:22.006Z,100413.91
2023-04-30T16:44:50.730Z,100405.59
2023-04-30T16:47:18.992Z,100401.09
2023-04-30T16:49:45.431Z,100400.91
2023-04-30T16:52:12.591Z,100401.25
2023-04-30T16:54:39.055Z,100391.75
2023-04-30T16:57:05.690Z,100401.91
2023-04-30T16:59:32.198Z,100391.59
2023-04-30T17:02:01.873Z,100393.91
2023-04-30T17:04:28.236Z,100405.56
2023-04-30T17:06:55.117Z,100400.88
2023-04-30T17:09:23.908Z,100406.84
2023-04-30T17:11:55.215Z,100407.47
2023-04-30T17:14:22.545Z,100401.50
2023-04-30T17:16:48.994Z,100388.19
2023-04-30T17:19:18.114Z,100389.84
2023-04-30T17:21:46.822Z,100403.16
2023-04-30T17:24:13.286Z,100395.63
2023-04-30T17:26:39.772Z,100396.78
2023-04-30T17:29:06.342Z,100395.78
2023-04-30T17:31:33.042Z,100399.44
2023-04-30T17:34:02.570Z,100401.56
2023-04-30T17:36:32.138Z,100408.00
2023-04-30T17:38:58.681Z,100412.97
2023-04-30T17:41:27.756Z,100405.59
2023-04-30T17:43:54.152Z,100414.38
2023-04-30T17:46:20.609Z,100417.34
2023-04-30T17:48:47.191Z,100416.44
2023-04-30T17:51:13.800Z,100430.38
2023-04-30T17:53:40.613Z,100422.69
2023-04-30T17:56:10.237Z,100416.34
2023-04-30T17:58:38.422Z,100418.91
2023-04-30T18:01:06.481Z,100420.53
2023-04-30T18:03:37.964Z,100433.06
2023-04-30T18:06:04.421Z,100423.59
2023-04-30T18:08:30.919Z,100419.34
2023-04-30T18:10:57.797Z,100432.19
2023-04-30T18:13:24.367Z,100430.44
2023-04-30T18:15:51.438Z,100439.59
2023-04-30T18:18:18.471Z,100444.28
2023-04-30T18:20:45.067Z,100443.03
2023-04-30T18:23:13.603Z,100441.19
2023-04-30T18:25:40.807Z,100441.09
2023-04-30T18:28:09.805Z,100454.19
2023-04-30T18:30:36.881Z,100461.78
2023-04-30T18:33:07.158Z,100461.25
2023-04-30T18:35:34.612Z,100451.78
2023-04-30T18:38:01.859Z,100458.22
2023-04-30T18:40:30.981Z,100463.25
2023-04-30T18:42:57.403Z,100468.00
2023-04-30T18:45:24.025Z,100468.41
2023-04-30T18:47:50.654Z,100471.88
2023-04-30T18:50:17.901Z,100466.28
2023-04-30T18:52:45.184Z,100476.28
2023-04-30T18:55:13.674Z,100483.94
2023-04-30T18:57:42.377Z,100492.59
2023-04-30T19:00:10.677Z,100486.00
2023-04-30T19:02:40.472Z,100486.19
2023-04-30T19:05:07.492Z,100489.47
2023-04-30T19:07:36.647Z,100495.56
2023-04-30T19:10:05.649Z,100496.09
2023-04-30T19:12:53.630Z,100503.00
2023-04-30T19:15:20.002Z,100499.34
2023-04-30T19:17:46.421Z,100507.59
2023-04-30T19:20:13.166Z,100502.69
2023-04-30T19:22:40.729Z,100515.84
2023-04-30T19:25:07.601Z,100516.34
2023-04-30T19:27:36.499Z,100521.06
2023-04-30T19:30:03.021Z,100512.78
2023-04-30T19:32:29.528Z,100526.25
2023-04-30T19:34:58.973Z,100526.06
2023-04-30T19:37:25.671Z,100527.50
2023-04-30T19:39:54.925Z,100526.09
2023-04-30T19:42:21.561Z,100521.34
2023-04-30T19:44:51.048Z,100532.38
2023-04-30T19:47:22.722Z,100533.47
2023-04-30T19:49:53.134Z,100532.03
2023-04-30T19:52:19.769Z,100533.34
2023-04-30T19:54:50.226Z,100539.72
2023-04-30T19:57:19.606Z,100535.03
2023-04-30T19:59:47.210Z,100534.56
2023-04-30T20:02:16.787Z,100543.69
2023-04-30T20:04:43.212Z,100539.75
2023-04-30T20:07:09.585Z,100540.13
2023-04-30T20:09:37.248Z,100535.78
2023-04-30T20:12:04.141Z,100549.09
2023-04-30T20:14:35.867Z,100548.50
2023-04-30T20:17:02.533Z,100536.50
2023-04-30T20:19:28.913Z,100542.03
2023-04-30T20:21:55.301Z,100542.88
2023-04-30T20:24:22.021Z,100538.91
2023-04-30T20:26:48.424Z,100543.59
2023-04-30T20:29:18.501Z,100537.00
2023-04-30T20:31:45.152Z,100548.41
2023-04-30T20:34:11.790Z,100540.84
2023-04-30T20:36:38.637Z,100545.63
2023-04-30T20:39:05.094Z,100532.56
2023-04-30T20:42:08.869Z,100539.16
2023-04-30T20:45:13.334Z,100535.56
2023-04-30T20:48:17.401Z,100534.34
2023-04-30T20:51:23.398Z,100530.28
2023-04-30T20:54:27.625Z,100535.06
2023-04-30T20:57:31.654Z,100534.56
2023-04-30T21:00:36.198Z,100532.16
2023-04-30T21:03:40.396Z,100527.38
2023-04-30T21:06:44.837Z,100537.19
2023-04-30T21:09:50.382Z,100531.41
2023-04-30T21:12:54.538Z,100535.25
2023-04-30T21:15:58.373Z,100533.81
2023-04-30T21:19:02.403Z,100528.91
2023-04-30T21:22:06.589Z,100525.63
2023-04-30T21:25:12.171Z,100531.13
2023-04-30T21:28:18.952Z,100530.53
2023-04-30T21:31:23.637Z,100519.41
2023-04-30T21:34:28.069Z,100537.13
2023-04-30T21:37:32.318Z,100531.00
2023-04-30T21:40:01.814Z,100525.09
2023-04-30T21:42:28.920Z,100523.44
2023-04-30T21:44:55.627Z,100531.00
2023-04-30T21:47:22.186Z,100525.09
2023-04-30T21:49:48.523Z,100517.31
2023-04-30T21:52:14.963Z,100520.06
2023-04-30T21:54:41.460Z,100514.81
2023-04-30T21:57:12.645Z,100522.84
2023-04-30T21:59:42.188Z,100518.63
2023-04-30T22:02:22.864Z,100516.97
2023-04-30T22:04:53.558Z,100508.56
2023-04-30T22:07:19.949Z,100515.72
2023-04-30T22:09:47.013Z,100512.56
2023-04-30T22:12:16.025Z,100509.44
2023-04-30T22:14:42.510Z,100521.03
2023-04-30T22:17:08.994Z,100506.53
2023-04-30T22:19:35.456Z,100512.97
2023-04-30T22:22:02.018Z,100510.56
2023-04-30T22:24:28.519Z,100510.81
2023-04-30T22:26:55.220Z,100514.38
2023-04-30T22:29:21.678Z,100511.22
2023-04-30T22:31:48.116Z,100511.00
2023-04-30T22:34:16.777Z,100506.94
2023-04-30T22:36:44.348Z,100506.19
2023-04-30T22:39:11.748Z,100497.09
2023-04-30T22:41:41.259Z,100492.97
2023-04-30T22:44:07.637Z,100491.53
2023-04-30T22:46:36.534Z,100502.41
2023-04-30T22:49:03.132Z,100489.56
2023-04-30T22:51:29.646Z,100495.75
2023-04-30T22:53:56.663Z,100487.38
2023-04-30T22:56:23.382Z,100489.28
2023-04-30T22:58:49.718Z,100490.56
2023-04-30T23:01:16.628Z,100489.81
2023-04-30T23:03:43.055Z,100484.91
2023-04-30T23:06:13.065Z,100497.09
2023-04-30T23:08:39.491Z,100493.00
2023-04-30T23:11:06.277Z,100488.69
2023-04-30T23:13:35.274Z,100487.97
2023-04-30T23:16:08.824Z,100485.56
2023-04-30T23:18:36.917Z,100493.56
2023-04-30T23:21:06.050Z,100485.75
2023-04-30T23:23:32.747Z,100493.13
2023-04-30T23:25:59.269Z,100481.16
2023-04-30T23:28:26.119Z,100484.97
2023-04-30T23:30:54.687Z,100485.16
2023-04-30T23:33:21.558Z,100473.19
2023-04-30T23:35:48.106Z,100474.38
2023-04-30T23:38:15.397Z,100484.16
2023-04-30T23:40:46.989Z,100470.47
2023-04-30T23:43:13.321Z,100469.00
2023-04-30T23:45:43.610Z,100467.56
2023-04-30T23:48:10.405Z,100466.72
2023-04-30T23:50:38.047Z,100466.94
2023-04-30T23:53:07.710Z,100464.41
2023-04-30T23:55:34.877Z,100455.78
2023-04-30T23:58:03.850Z,100445.47
